Flight Track Log - Related Links

Times and Time Zones

All times are in EDT time to prevent confusion due to time zone crossing. See the SWA3247 flight status page for this flight to view local times or setup timezone preferences in your user account.

Time Position Orientation Groundspeed Altitude Reporting Facility
EDT Latitude Longitude Course Direction KTS MPH feet Rate Location/Type
Mon 08:38:54 PM 36.0770 -115.1700 272° West 181 208 3,000  Level FlightAware ADS-B
Mon 08:39:24 PM 36.0770 -115.2040 270° West 198 228 4,000 1,448 Climbing FlightAware ADS-B
Mon 08:39:52 PM 36.0770 -115.2380 270° West 231 266 4,400 1,263 Climbing FlightAware ADS-B
Mon 08:40:21 PM 36.0840 -115.2730 284° West 250 288 5,200 2,000 Climbing FlightAware ADS-B
Mon 08:40:37 PM 36.1010 -115.2880 325° Northwest 262 302 5,900 2,571 Climbing FlightAware ADS-B
Mon 08:41:03 PM 36.1320 -115.2950 350° North 259 298 7,000 2,667 Climbing FlightAware ADS-B
Mon 08:41:31 PM 36.1610 -115.2770 27° Northeast 256 295 8,300 2,591 Climbing FlightAware ADS-B
Mon 08:41:47 PM 36.1700 -115.2560 62° Northeast 253 291 8,900 1,674 Climbing FlightAware ADS-B
Mon 08:42:14 PM 36.1850 -115.2190 63° Northeast 280 322 9,500 1,612 Climbing FlightAware ADS-B
Mon 08:42:54 PM 36.1960 -115.1540 78° East 304 350 10,700 1,390 Climbing FlightAware ADS-B
Mon 08:43:36 PM 36.1970 -115.0730 89° East 353 406 11,400 1,655 Climbing FlightAware ADS-B
Mon 08:44:21 PM 36.1980 -114.9830 89° East 366 421 13,100 2,302 Climbing FlightAware ADS-B
Mon 08:45:02 PM 36.1990 -114.8950 89° East 374 430 14,700 2,444 Climbing FlightAware ADS-B
Mon 08:45:42 PM 36.2000 -114.8070 89° East 379 436 16,400 2,541 Climbing FlightAware ADS-B
Mon 08:46:27 PM 36.2000 -114.7100 90° East 382 440 18,300 2,372 Climbing FlightAware ADS-B
Mon 08:47:08 PM 36.1980 -114.6210 92° East 389 448 19,800 2,148 Climbing FlightAware ADS-B
Mon 08:47:48 PM 36.2030 -114.5340 86° East 396 456 21,200 2,000 Climbing FlightAware ADS-B
Mon 08:48:32 PM 36.2310 -114.4370 70° East 409 471 22,600 1,906 Climbing FlightAware ADS-B
Mon 08:49:13 PM 36.2620 -114.3470 67° East 416 479 23,900 1,906 Climbing FlightAware ADS-B
Mon 08:49:57 PM 36.3060 -114.2570 59° Northeast 418 481 25,300 1,786 Climbing FlightAware ADS-B
Mon 08:50:37 PM 36.3460 -114.1750 59° Northeast 425 489 26,400 1,500 Climbing FlightAware ADS-B
Mon 08:51:21 PM 36.3900 -114.0840 59° Northeast 434 499 27,400 1,429 Climbing FlightAware ADS-B
Mon 08:52:01 PM 36.4330 -113.9950 59° Northeast 440 506 28,400 1,481 Climbing FlightAware ADS-B
Mon 08:52:42 PM 36.4760 -113.9070 59° Northeast 446 513 29,400 1,412 Climbing FlightAware ADS-B
Mon 08:53:26 PM 36.5250 -113.8100 58° Northeast 450 518 30,400 1,326 Climbing FlightAware ADS-B
Mon 08:54:08 PM 36.5700 -113.7190 58° Northeast 453 521 31,300 1,341 Climbing FlightAware ADS-B
Mon 08:54:51 PM 36.6160 -113.6200 60° Northeast 453 521 32,300 1,373 Climbing FlightAware ADS-B
Mon 08:55:31 PM 36.6440 -113.5230 70° East 454 522 33,200 1,357 Climbing FlightAware ADS-B
Mon 08:56:15 PM 36.6730 -113.4190 71° East 455 524 34,200 1,395 Climbing FlightAware ADS-B
Mon 08:56:57 PM 36.7020 -113.3110 71° East 452 520 35,200 1,463 Climbing FlightAware ADS-B
Mon 08:57:37 PM 36.7300 -113.2100 71° East 447 514 36,200 1,286 Climbing FlightAware ADS-B
Mon 08:58:21 PM 36.7590 -113.1040 71° East 443 510 37,000 565 Climbing FlightAware ADS-B
Mon 08:59:02 PM 36.7840 -113.0120 71° East 444 511 37,000  Level FlightAware ADS-B
Mon 08:59:40 PM 36.8100 -112.9170 71° East 445 512 37,000  Level FlightAware ADS-B
Mon 09:00:21 PM 36.8370 -112.8150 72° East 444 511 37,000  Level FlightAware ADS-B
Mon 09:01:06 PM 36.8660 -112.7060 72° East 441 507 37,000  Level FlightAware ADS-B
Mon 09:01:47 PM 36.8930 -112.6070 71° East 440 506 37,000  Level FlightAware ADS-B
Mon 09:02:31 PM 36.9220 -112.5000 71° East 438 504 37,000  Level FlightAware ADS-B
Mon 09:03:07 PM 36.9430 -112.4180 72° East 439 505 37,000  Level FlightAware ADS-B
Mon 09:03:49 PM 36.9720 -112.3120 71° East 439 505 37,000  Level FlightAware ADS-B
Mon 09:04:31 PM 36.9980 -112.2130 72° East 438 504 37,000  Level FlightAware ADS-B
Mon 09:05:07 PM 37.0210 -112.1260 72° East 440 506 37,000  Level FlightAware ADS-B
Mon 09:05:46 PM 37.0580 -112.0390 62° Northeast 436 502 37,000  Level FlightAware ADS-B
Mon 09:06:29 PM 37.1030 -111.9490 58° Northeast 437 503 37,000  Level FlightAware ADS-B
Mon 09:07:05 PM 37.1440 -111.8720 56° Northeast 437 503 37,000  Level FlightAware ADS-B
Mon 09:07:56 PM 37.1960 -111.7740 56° Northeast 437 503 37,000  Level FlightAware ADS-B
Mon 09:08:44 PM 37.2420 -111.6880 56° Northeast 437 503 37,000  Level FlightAware ADS-B
Mon 09:09:20 PM 37.2760 -111.6240 56° Northeast 437 503 37,000  Level FlightAware ADS-B
Mon 09:10:08 PM 37.3220 -111.5380 56° Northeast 437 503 37,000  Level FlightAware ADS-B
Mon 09:10:44 PM 37.3570 -111.4730 56° Northeast 437 503 37,000  Level FlightAware ADS-B
Mon 09:11:32 PM 37.4030 -111.3870 56° Northeast 437 503 37,000  Level FlightAware ADS-B
Mon 09:12:08 PM 37.4380 -111.3220 56° Northeast 437 503 37,000  Level FlightAware ADS-B
Mon 09:12:44 PM 37.4720 -111.2580 56° Northeast 437 503 37,000  Level FlightAware ADS-B
Mon 09:13:22 PM 37.5090 -111.1900 56° Northeast 437 503 37,000  Level FlightAware ADS-B
Mon 09:14:10 PM 37.5550 -111.1030 56° Northeast 437 503 37,000  Level FlightAware ADS-B
Mon 09:15:24 PM 37.6260 -110.9700 56° Northeast 437 503 37,000  Level FlightAware ADS-B
Mon 09:16:00 PM 37.6610 -110.9050 56° Northeast 437 503 37,000  Level FlightAware ADS-B
Mon 09:16:48 PM 37.7070 -110.8190 56° Northeast 437 503 37,000  Level FlightAware ADS-B
Mon 09:17:00 PM 37.6670 -110.5150 99° East 37,000  Level FlightAware ADS-B
Mon 09:17:20 PM 37.6830 -110.4610 69° East 443 510 37,000  Level FlightAware ADS-B
Mon 09:18:01 PM 37.7110 -110.3650 70° East 442 509 37,000  Level FlightAware ADS-B
Mon 09:18:41 PM 37.7390 -110.2720 69° East 441 507 37,000  Level FlightAware ADS-B
Mon 09:19:17 PM 37.7660 -110.1790 70° East 442 509 37,000  Level FlightAware ADS-B
Mon 09:20:02 PM 37.7950 -110.0800 70° East 443 510 37,000  Level FlightAware ADS-B
Mon 09:20:42 PM 37.8270 -109.9710 70° East 445 512 37,000  Level FlightAware ADS-B
Mon 09:21:24 PM 37.8540 -109.8770 70° East 443 510 37,000  Level FlightAware ADS-B
Mon 09:22:04 PM 37.8830 -109.7770 70° East 443 510 37,000  Level FlightAware ADS-B
Mon 09:22:49 PM 37.9160 -109.6630 70° East 443 510 37,000  Level FlightAware ADS-B
Mon 09:23:29 PM 37.9410 -109.5760 70° East 443 510 37,000  Level FlightAware ADS-B
Mon 09:24:04 PM 37.9690 -109.4790 70° East 443 510 37,000  Level FlightAware ADS-B
Mon 09:24:45 PM 37.9960 -109.3850 70° East 440 506 37,000  Level FlightAware ADS-B
Mon 09:25:31 PM 38.0280 -109.2720 70° East 440 506 37,000  Level FlightAware ADS-B
Mon 09:26:04 PM 38.0490 -109.1960 71° East 440 506 37,000  Level FlightAware ADS-B
Mon 09:26:59 PM 38.0880 -109.0620 70° East 438 504 37,000  Level FlightAware ADS-B
Mon 09:27:55 PM 38.1270 -108.9220 70° East 435 501 37,000  Level FlightAware ADS-B
Mon 09:28:34 PM 38.1520 -108.8310 71° East 435 501 37,000  Level FlightAware ADS-B
Mon 09:29:19 PM 38.1840 -108.7180 70° East 438 504 37,000  Level FlightAware ADS-B
Mon 09:30:16 PM 38.2190 -108.5910 71° East 439 505 37,000  Level FlightAware ADS-B
Mon 09:30:52 PM 38.2460 -108.4950 70° East 440 506 37,000  Level FlightAware ADS-B
Mon 09:31:29 PM 38.2680 -108.4150 71° East 440 506 37,000  Level FlightAware ADS-B
Mon 09:32:13 PM 38.2990 -108.3020 71° East 438 504 37,000  Level FlightAware ADS-B
Mon 09:32:53 PM 38.3280 -108.1970 71° East 438 504 37,000  Level FlightAware ADS-B
Mon 09:33:31 PM 38.3560 -108.1150 66° East 436 502 37,000  Level FlightAware ADS-B
Mon 09:34:15 PM 38.3900 -108.0180 66° East 432 497 37,000  Level FlightAware ADS-B
Mon 09:34:51 PM 38.4190 -107.9350 66° East 430 495 37,000  Level FlightAware ADS-B
Mon 09:35:38 PM 38.4600 -107.8150 66° East 427 491 37,000  Level FlightAware ADS-B
Mon 09:36:23 PM 38.4930 -107.7180 66° East 423 487 37,000  Level FlightAware ADS-B
Mon 09:37:18 PM 38.5370 -107.5840 67° East 421 484 37,000  Level FlightAware ADS-B
Mon 09:37:53 PM 38.5620 -107.5090 67° East 422 486 37,000  Level FlightAware ADS-B
Mon 09:38:33 PM 38.5880 -107.4210 69° East 425 489 37,000  Level FlightAware ADS-B
Mon 09:39:13 PM 38.6180 -107.3180 70° East 423 487 37,000  Level FlightAware ADS-B
Mon 09:39:58 PM 38.6470 -107.2180 70° East 423 487 37,000  Level FlightAware ADS-B
Mon 09:40:38 PM 38.6750 -107.1180 70° East 425 489 37,000  Level FlightAware ADS-B
Mon 09:41:23 PM 38.7040 -107.0160 70° East 426 490 37,000  Level FlightAware ADS-B
Mon 09:42:01 PM 38.7300 -106.9250 70° East 423 487 37,000  Level FlightAware ADS-B
Mon 09:42:42 PM 38.7570 -106.8290 70° East 425 489 37,000  Level FlightAware ADS-B
Mon 09:43:30 PM 38.7850 -106.7150 72° East 427 491 37,000  Level FlightAware ADS-B
Mon 09:44:11 PM 38.8130 -106.6100 71° East 429 494 37,000  Level FlightAware ADS-B
Mon 09:44:51 PM 38.8350 -106.5230 72° East 430 495 37,000  Level FlightAware ADS-B
Mon 09:45:46 PM 38.8690 -106.3860 72° East 427 491 37,000  Level FlightAware ADS-B
Mon 09:46:31 PM 38.8960 -106.2760 72° East 425 489 37,000  Level FlightAware ADS-B
Mon 09:47:03 PM 38.9150 -106.1990 72° East 425 489 37,000  Level FlightAware ADS-B
Mon 09:47:49 PM 38.9410 -106.0960 72° East 422 486 37,000  Level FlightAware ADS-B
Mon 09:48:25 PM 38.9640 -106.0020 73° East 421 484 37,000  Level FlightAware ADS-B
Mon 09:49:10 PM 38.9910 -105.8930 72° East 421 484 37,000  Level FlightAware ADS-B
Mon 09:49:54 PM 39.0170 -105.7870 72° East 420 483 37,000  Level FlightAware ADS-B
Mon 09:50:36 PM 39.0420 -105.6870 72° East 422 486 37,000  Level FlightAware ADS-B
Mon 09:51:16 PM 39.0650 -105.5920 73° East 421 484 37,000  Level FlightAware ADS-B
Mon 09:51:52 PM 39.0860 -105.5040 73° East 424 488 37,000  Level FlightAware ADS-B
Mon 09:52:34 PM 39.1110 -105.4020 72° East 429 494 37,000  Level FlightAware ADS-B
Mon 09:53:16 PM 39.1350 -105.3010 73° East 425 489 37,000  Level FlightAware ADS-B
Mon 09:53:52 PM 39.1560 -105.2150 72° East 419 482 37,000  Level FlightAware ADS-B
Mon 09:54:33 PM 39.1790 -105.1170 73° East 419 482 37,000  Level FlightAware ADS-B
Mon 09:55:17 PM 39.2040 -105.0140 73° East 418 481 37,000  Level FlightAware ADS-B
Mon 09:55:57 PM 39.2270 -104.9170 73° East 417 480 37,000  Level FlightAware ADS-B
Mon 09:56:41 PM 39.2510 -104.8140 73° East 419 482 37,000  Level FlightAware ADS-B
Mon 09:57:23 PM 39.2750 -104.7130 73° East 419 482 37,000  Level FlightAware ADS-B
Mon 09:58:03 PM 39.2970 -104.6160 74° East 419 482 37,000  Level FlightAware ADS-B
Mon 09:58:43 PM 39.3200 -104.5210 73° East 420 483 37,000  Level FlightAware ADS-B
Mon 09:59:21 PM 39.3410 -104.4300 73° East 420 483 37,000  Level FlightAware ADS-B
Mon 10:00:01 PM 39.3620 -104.3390 73° East 421 484 37,000  Level FlightAware ADS-B
Mon 10:00:41 PM 39.3850 -104.2380 74° East 421 484 37,000  Level FlightAware ADS-B
Mon 10:01:21 PM 39.4070 -104.1420 73° East 420 483 37,000  Level FlightAware ADS-B
Mon 10:02:01 PM 39.4290 -104.0450 74° East 418 481 37,000  Level FlightAware ADS-B
Mon 10:02:41 PM 39.4500 -103.9510 74° East 417 480 37,000  Level FlightAware ADS-B
Mon 10:03:25 PM 39.4740 -103.8460 73° East 414 476 37,000  Level FlightAware ADS-B
Mon 10:04:03 PM 39.4940 -103.7560 74° East 413 475 37,000  Level FlightAware ADS-B
Mon 10:04:49 PM 39.5190 -103.6470 73° East 412 474 37,000  Level FlightAware ADS-B
Mon 10:05:29 PM 39.5400 -103.5520 74° East 411 473 37,000  Level FlightAware ADS-B
Mon 10:06:16 PM 39.5650 -103.4410 74° East 411 473 37,000  Level FlightAware ADS-B
Mon 10:06:58 PM 39.5860 -103.3440 74° East 412 474 37,000  Level FlightAware ADS-B
Mon 10:07:51 PM 39.6120 -103.2240 74° East 412 474 37,000  Level FlightAware ADS-B
Mon 10:08:27 PM 39.6280 -103.1510 74° East 412 474 37,000  Level FlightAware ADS-B
Mon 10:09:15 PM 39.6500 -103.0540 74° East 412 474 37,000  Level FlightAware ADS-B
Mon 10:09:57 PM 39.6800 -102.9140 74° East 414 476 37,000  Level FlightAware ADS-B
Mon 10:10:36 PM 39.6970 -102.8350 74° East 414 476 37,000  Level FlightAware ADS-B
Mon 10:11:14 PM 39.7140 -102.7580 74° East 414 476 37,000  Level FlightAware ADS-B
Mon 10:12:19 PM 39.7520 -102.5760 75° East 415 478 37,000  Level FlightAware ADS-B
Mon 10:13:16 PM 39.7790 -102.4520 74° East 416 479 37,000  Level FlightAware ADS-B
Mon 10:13:52 PM 39.7960 -102.3780 73° East 416 479 37,000  Level FlightAware ADS-B
Mon 10:14:54 PM 39.8240 -102.2510 74° East 416 479 37,000  Level FlightAware ADS-B
Mon 10:15:31 PM 39.8400 -102.1760 74° East 416 479 37,000  Level FlightAware ADS-B
Mon 10:16:19 PM 39.8620 -102.0770 74° East 416 479 37,000  Level FlightAware ADS-B
Mon 10:16:55 PM 39.8780 -102.0030 74° East 416 479 37,000  Level FlightAware ADS-B
Mon 10:17:55 PM 39.9050 -101.8810 74° East 416 479 37,000  Level FlightAware ADS-B
Mon 10:18:31 PM 39.9210 -101.8070 74° East 416 479 37,000  Level FlightAware ADS-B
Mon 10:19:19 PM 39.9430 -101.7080 74° East 416 479 37,000  Level FlightAware ADS-B
Mon 10:19:55 PM 39.9590 -101.6340 74° East 416 479 37,000  Level FlightAware ADS-B
Mon 10:20:31 PM 39.9750 -101.5610 74° East 416 479 37,000  Level FlightAware ADS-B
Mon 10:21:19 PM 39.9970 -101.4620 74° East 416 479 37,000  Level FlightAware ADS-B
Mon 10:22:07 PM 40.0190 -101.3630 74° East 416 479 37,000 876 Level FlightAware ADS-B
Mon 10:23:36 PM 40.0819 -100.9628 74° East 420 483 39,000 800 Climbing Denver Center
Mon 10:24:37 PM 40.1147 -100.7983 75° East 419 482 39,000  Level Denver Center
Mon 10:25:39 PM 40.1425 -100.6572 76° East 420 483 39,000  Level Denver Center
Mon 10:26:40 PM 40.1742 -100.4917 76° East 422 486 39,000  Level Denver Center
Mon 10:27:42 PM 40.2011 -100.3503 76° East 422 486 39,000  Level Denver Center
Mon 10:28:55 PM 40.2292 -100.2083 75° East 423 487 39,000  Level Denver Center
Mon 10:29:57 PM 40.2600 -100.0431 76° East 421 484 39,000  Level Denver Center
Mon 10:30:59 PM 40.2944 -99.8561 76° East 423 487 39,000  Level Denver Center
Mon 10:32:00 PM 40.3222 -99.7064 76° East 424 488 39,000  Level Denver Center
Mon 10:33:01 PM 40.3506 -99.5556 76° East 428 493 39,000  Level Denver Center
Mon 10:34:03 PM 40.3775 -99.4064 77° East 423 487 39,000  Level Denver Center
Mon 10:39:42 PM 40.5350 -98.5200 77° East 436 502 39,000  Level FlightAware ADS-B
Mon 10:40:20 PM 40.5490 -98.4410 77° East 436 502 39,000  Level FlightAware ADS-B
Mon 10:41:09 PM 40.5680 -98.3330 77° East 436 502 39,000  Level FlightAware ADS-B
Mon 10:41:48 PM 40.5920 -98.1930 77° East 440 506 39,000  Level FlightAware ADS-B
Mon 10:42:30 PM 40.6100 -98.0830 78° East 441 507 39,000  Level FlightAware ADS-B
Mon 10:43:06 PM 40.6260 -97.9900 77° East 441 507 39,000  Level FlightAware ADS-B
Mon 10:43:46 PM 40.6440 -97.8850 77° East 441 507 39,000  Level FlightAware ADS-B
Mon 10:44:30 PM 40.6620 -97.7730 78° East 438 504 39,000  Level FlightAware ADS-B
Mon 10:45:06 PM 40.6780 -97.6760 78° East 437 503 39,000  Level FlightAware ADS-B
Mon 10:45:42 PM 40.6930 -97.5860 78° East 437 503 39,000  Level FlightAware ADS-B
Mon 10:46:28 PM 40.7130 -97.4640 78° East 436 502 39,000  Level FlightAware ADS-B
Mon 10:47:12 PM 40.7320 -97.3500 78° East 435 501 39,000  Level FlightAware ADS-B
Mon 10:47:52 PM 40.7490 -97.2450 78° East 435 501 39,000  Level FlightAware ADS-B
Mon 10:48:36 PM 40.7680 -97.1300 78° East 434 499 39,000  Level FlightAware ADS-B
Mon 10:49:16 PM 40.7840 -97.0270 78° East 433 498 39,000  Level FlightAware ADS-B
Mon 10:49:52 PM 40.7980 -96.9340 79° East 433 498 39,000  Level FlightAware ADS-B
Mon 10:50:32 PM 40.8150 -96.8320 78° East 433 498 39,000  Level FlightAware ADS-B
Mon 10:51:16 PM 40.8330 -96.7170 78° East 433 498 39,000  Level FlightAware ADS-B
Mon 10:51:58 PM 40.8500 -96.6080 78° East 434 499 39,000  Level FlightAware ADS-B
Mon 10:52:41 PM 40.8670 -96.4980 78° East 435 501 39,000  Level FlightAware ADS-B
Mon 10:53:22 PM 40.8840 -96.3900 78° East 436 502 39,000  Level FlightAware ADS-B
Mon 10:54:02 PM 40.9000 -96.2850 79° East 438 504 39,000  Level FlightAware ADS-B
Mon 10:54:46 PM 40.9170 -96.1720 79° East 440 506 39,000  Level FlightAware ADS-B
Mon 10:55:27 PM 40.9330 -96.0660 79° East 442 509 39,000  Level FlightAware ADS-B
Mon 10:56:10 PM 40.9500 -95.9500 79° East 444 511 39,000  Level FlightAware ADS-B
Mon 10:56:50 PM 40.9660 -95.8440 79° East 445 512 39,000  Level FlightAware ADS-B
Mon 10:57:34 PM 40.9830 -95.7260 79° East 446 513 39,000  Level FlightAware ADS-B
Mon 10:58:16 PM 41.0000 -95.6120 79° East 447 514 39,000  Level FlightAware ADS-B
Mon 10:59:12 PM 41.0220 -95.4640 79° East 445 512 39,000  Level FlightAware ADS-B
Mon 10:59:52 PM 41.0370 -95.3570 79° East 443 510 39,000  Level FlightAware ADS-B
Mon 11:00:36 PM 41.0540 -95.2400 79° East 442 509 39,000  Level FlightAware ADS-B
Mon 11:01:20 PM 41.0710 -95.1220 79° East 441 507 39,000  Level FlightAware ADS-B
Mon 11:02:00 PM 41.0860 -95.0170 79° East 441 507 39,000  Level FlightAware ADS-B
Mon 11:02:40 PM 41.1000 -94.9110 80° East 441 507 39,000  Level FlightAware ADS-B
Mon 11:03:24 PM 41.1170 -94.7940 79° East 441 507 39,000  Level FlightAware ADS-B
Mon 11:04:08 PM 41.1330 -94.6770 80° East 442 509 39,000  Level FlightAware ADS-B
Mon 11:04:48 PM 41.1480 -94.5680 80° East 445 512 39,000  Level FlightAware ADS-B
Mon 11:05:32 PM 41.1640 -94.4520 80° East 450 518 39,000  Level FlightAware ADS-B
Mon 11:06:06 PM 41.1750 -94.3730 79° East 451 519 39,000  Level FlightAware ADS-B
Mon 11:07:18 PM 41.2020 -94.1740 80° East 452 520 39,000  Level FlightAware ADS-B
Mon 11:07:55 PM 41.2160 -94.0620 81° East 453 521 39,000  Level FlightAware ADS-B
Mon 11:08:32 PM 41.2270 -93.9760 80° East 453 521 39,000  Level FlightAware ADS-B
Mon 11:09:22 PM 41.2470 -93.8240 80° East 454 522 39,000  Level FlightAware ADS-B
Mon 11:10:02 PM 41.2600 -93.7170 81° East 454 522 39,000  Level FlightAware ADS-B
Mon 11:10:40 PM 41.2740 -93.6120 80° East 454 522 39,000  Level FlightAware ADS-B
Mon 11:11:27 PM 41.2910 -93.4810 80° East 454 522 39,000  Level FlightAware ADS-B
Mon 11:12:08 PM 41.3050 -93.3670 81° East 452 520 39,000  Level FlightAware ADS-B
Mon 11:12:50 PM 41.3190 -93.2520 81° East 452 520 39,000  Level FlightAware ADS-B
Mon 11:13:32 PM 41.3340 -93.1360 80° East 451 519 39,000  Level FlightAware ADS-B
Mon 11:14:16 PM 41.3480 -93.0180 81° East 450 518 39,000  Level FlightAware ADS-B
Mon 11:14:56 PM 41.3610 -92.9090 81° East 449 517 39,000  Level FlightAware ADS-B
Mon 11:15:40 PM 41.3760 -92.7880 81° East 448 516 39,000  Level FlightAware ADS-B
Mon 11:16:20 PM 41.3890 -92.6790 81° East 448 516 39,000  Level FlightAware ADS-B
Mon 11:17:06 PM 41.4040 -92.5560 81° East 448 516 39,000  Level FlightAware ADS-B
Mon 11:17:46 PM 41.4170 -92.4450 81° East 448 516 39,000  Level FlightAware ADS-B
Mon 11:18:22 PM 41.4270 -92.3520 82° East 448 516 39,000  Level FlightAware ADS-B
Mon 11:19:10 PM 41.4430 -92.2210 81° East 449 517 39,000  Level FlightAware ADS-B
Mon 11:19:54 PM 41.4570 -92.0970 81° East 450 518 39,000  Level FlightAware ADS-B
Mon 11:20:33 PM 41.4690 -91.9900 81° East 449 517 39,000  Level FlightAware ADS-B
Mon 11:21:18 PM 41.4830 -91.8680 81° East 451 519 39,000  Level FlightAware ADS-B
Mon 11:21:52 PM 41.4930 -91.7790 81° East 453 521 39,000  Level FlightAware ADS-B
Mon 11:22:35 PM 41.5070 -91.6540 81° East 454 522 39,000  Level FlightAware ADS-B
Mon 11:23:14 PM 41.5180 -91.5510 82° East 455 524 39,000  Level FlightAware ADS-B
Mon 11:23:53 PM 41.5300 -91.4380 82° East 457 526 39,000  Level FlightAware ADS-B
Mon 11:24:30 PM 41.5410 -91.3390 82° East 457 526 39,000  Level FlightAware ADS-B
Mon 11:25:14 PM 41.5540 -91.2110 82° East 457 526 39,000  Level FlightAware ADS-B
Mon 11:25:58 PM 41.5670 -91.0900 82° East 457 526 39,000  Level FlightAware ADS-B
Mon 11:26:40 PM 41.5840 -90.9770 79° East 456 525 39,000  Level FlightAware ADS-B
Mon 11:27:20 PM 41.6000 -90.8640 79° East 455 524 39,000  Level FlightAware ADS-B
Mon 11:27:59 PM 41.6150 -90.7570 79° East 453 521 39,000  Level FlightAware ADS-B
Mon 11:28:42 PM 41.6320 -90.6390 79° East 454 522 39,000  Level FlightAware ADS-B
Mon 11:29:21 PM 41.6480 -90.5300 79° East 455 524 39,000  Level FlightAware ADS-B
Mon 11:30:02 PM 41.6640 -90.4160 79° East 456 525 39,000  Level FlightAware ADS-B
Mon 11:30:40 PM 41.6790 -90.3110 79° East 457 526 39,000  Level FlightAware ADS-B
Mon 11:31:21 PM 41.6940 -90.1980 80° East 457 526 39,000  Level FlightAware ADS-B
Mon 11:32:00 PM 41.7090 -90.0890 80° East 458 527 39,000  Level FlightAware ADS-B
Mon 11:32:42 PM 41.7250 -89.9720 80° East 457 526 39,000  Level FlightAware ADS-B
Mon 11:33:25 PM 41.7410 -89.8540 80° East 457 526 39,000  Level FlightAware ADS-B
Mon 11:34:08 PM 41.7570 -89.7320 80° East 456 525 39,000  Level FlightAware ADS-B
Mon 11:34:49 PM 41.7720 -89.6200 80° East 457 526 39,000  Level FlightAware ADS-B
Mon 11:35:33 PM 41.7880 -89.4970 80° East 456 525 39,000  Level FlightAware ADS-B
Mon 11:36:02 PM 41.7990 -89.4150 80° East 454 522 39,000  Level FlightAware ADS-B
Mon 11:36:49 PM 41.8160 -89.2880 80° East 452 520 39,000  Level FlightAware ADS-B
Mon 11:37:28 PM 41.8300 -89.1790 80° East 450 518 39,000  Level FlightAware ADS-B
Mon 11:38:13 PM 41.8450 -89.0560 81° East 448 516 39,000  Level FlightAware ADS-B
Mon 11:38:55 PM 41.8590 -88.9450 80° East 447 514 39,000  Level FlightAware ADS-B
Mon 11:39:35 PM 41.8730 -88.8340 80° East 447 514 39,000  Level FlightAware ADS-B
Mon 11:40:19 PM 41.8880 -88.7170 80° East 449 517 39,000  Level FlightAware ADS-B
Mon 11:40:51 PM 41.8990 -88.6270 81° East 452 520 39,000  Level FlightAware ADS-B
Mon 11:41:31 PM 41.9130 -88.5150 80° East 453 521 39,000  Level FlightAware ADS-B
Mon 11:42:18 PM 41.9290 -88.3830 81° East 452 520 39,000  Level FlightAware ADS-B
Mon 11:42:51 PM 41.9390 -88.2970 81° East 452 520 39,000  Level FlightAware ADS-B
Mon 11:43:30 PM 41.9530 -88.1840 81° East 451 519 39,000  Level FlightAware ADS-B
Mon 11:44:18 PM 41.9680 -88.0520 81° East 451 519 39,000  Level FlightAware ADS-B
Mon 11:44:58 PM 41.9810 -87.9450 81° East 452 520 39,000  Level FlightAware ADS-B
Mon 11:45:40 PM 41.9950 -87.8300 81° East 454 522 39,000  Level FlightAware ADS-B
Mon 11:46:21 PM 42.0080 -87.7120 82° East 455 524 39,000  Level FlightAware ADS-B
Mon 11:47:00 PM 42.0200 -87.6050 81° East 455 524 39,000  Level FlightAware ADS-B
Mon 11:47:46 PM 42.0350 -87.4750 81° East 454 522 39,000  Level FlightAware ADS-B
Mon 11:48:29 PM 42.0480 -87.3550 82° East 453 521 39,000  Level FlightAware ADS-B
Mon 11:49:10 PM 42.0610 -87.2430 81° East 452 520 39,000  Level FlightAware ADS-B
Mon 11:49:53 PM 42.0740 -87.1230 82° East 451 519 39,000  Level FlightAware ADS-B
Mon 11:50:33 PM 42.0870 -87.0100 81° East 451 519 39,000  Level FlightAware ADS-B
Mon 11:51:18 PM 42.1000 -86.8890 82° East 453 521 39,000  Level FlightAware ADS-B
Mon 11:51:52 PM 42.1100 -86.7930 82° East 455 524 39,000  Level FlightAware ADS-B
Mon 11:52:32 PM 42.1220 -86.6830 82° East 455 524 39,000  Level FlightAware ADS-B
Mon 11:53:15 PM 42.1350 -86.5570 82° East 456 525 39,000  Level FlightAware ADS-B
Mon 11:53:56 PM 42.1470 -86.4450 82° East 457 526 39,000  Level FlightAware ADS-B
Mon 11:54:40 PM 42.1590 -86.3220 82° East 458 527 39,000  Level FlightAware ADS-B
Mon 11:55:22 PM 42.1710 -86.2020 82° East 459 528 39,000  Level FlightAware ADS-B
Mon 11:56:02 PM 42.1830 -86.0880 82° East 460 529 39,000  Level FlightAware ADS-B
Mon 11:56:42 PM 42.1940 -85.9740 83° East 462 532 39,000  Level FlightAware ADS-B
Mon 11:57:18 PM 42.2040 -85.8730 82° East 462 532 39,000  Level FlightAware ADS-B
Mon 11:58:02 PM 42.2160 -85.7490 83° East 464 534 39,000  Level FlightAware ADS-B
Mon 11:58:42 PM 42.2270 -85.6330 83° East 465 535 39,000  Level FlightAware ADS-B
Mon 11:59:20 PM 42.2380 -85.5240 82° East 466 536 39,000  Level FlightAware ADS-B
Tue 12:00:00 AM 42.2490 -85.4080 83° East 466 536 39,000  Level FlightAware ADS-B
Tue 12:00:38 AM 42.2600 -85.2970 82° East 467 537 39,000  Level FlightAware ADS-B
Tue 12:01:26 AM 42.2730 -85.1580 83° East 467 537 39,000  Level FlightAware ADS-B
Tue 12:02:07 AM 42.2830 -85.0380 84° East 466 536 39,000  Level FlightAware ADS-B
Tue 12:02:47 AM 42.2930 -84.9250 83° East 464 534 39,000  Level FlightAware ADS-B
Tue 12:03:31 AM 42.3040 -84.8010 83° East 463 533 39,000  Level FlightAware ADS-B
Tue 12:04:13 AM 42.3150 -84.6800 83° East 463 533 39,000  Level FlightAware ADS-B
Tue 12:04:57 AM 42.3260 -84.5540 83° East 462 532 39,000  Level FlightAware ADS-B
Tue 12:05:34 AM 42.3360 -84.4450 83° East 461 531 39,000  Level FlightAware ADS-B
Tue 12:06:19 AM 42.3460 -84.3170 84° East 464 534 39,000  Level FlightAware ADS-B
Tue 12:07:01 AM 42.3560 -84.1990 83° East 463 533 39,000  Level FlightAware ADS-B
Tue 12:07:42 AM 42.3660 -84.0810 83° East 464 534 39,000  Level FlightAware ADS-B
Tue 12:08:24 AM 42.3760 -83.9600 84° East 464 534 39,000  Level FlightAware ADS-B
Tue 12:09:08 AM 42.3860 -83.8320 84° East 465 535 39,000  Level FlightAware ADS-B
Tue 12:09:50 AM 42.3960 -83.7100 84° East 466 536 39,000  Level FlightAware ADS-B
Tue 12:10:30 AM 42.4050 -83.5930 84° East 466 536 39,000  Level FlightAware ADS-B
Tue 12:11:02 AM 42.4120 -83.5010 84° East 466 536 39,000  Level FlightAware ADS-B
Tue 12:11:50 AM 42.4230 -83.3640 84° East 468 539 39,000  Level FlightAware ADS-B
Tue 12:12:30 AM 42.4310 -83.2480 85° East 471 542 39,000  Level FlightAware ADS-B
Tue 12:13:06 AM 42.4390 -83.1410 84° East 474 545 39,000  Level FlightAware ADS-B
Tue 12:13:44 AM 42.4480 -83.0280 84° East 478 550 39,000  Level FlightAware ADS-B
Tue 12:14:28 AM 42.4570 -82.8960 85° East 482 555 39,000  Level FlightAware ADS-B
Tue 12:15:09 AM 42.4660 -82.7750 84° East 485 558 39,000  Level FlightAware ADS-B
Tue 12:15:55 AM 42.4760 -82.6360 84° East 489 563 39,000  Level FlightAware ADS-B
Tue 12:16:35 AM 42.4840 -82.5150 85° East 492 566 39,000  Level FlightAware ADS-B
Tue 12:17:14 AM 42.4920 -82.3950 85° East 493 567 39,000  Level FlightAware ADS-B
Tue 12:18:04 AM 42.5010 -82.2660 85° East 496 571 39,000  Level FlightAware ADS-B
Tue 12:18:47 AM 42.5090 -82.1360 85° East 499 574 39,000  Level FlightAware ADS-B
Tue 12:19:29 AM 42.5180 -81.9970 85° East 498 573 39,000  Level FlightAware ADS-B
Tue 12:20:05 AM 42.5250 -81.8950 85° East 498 573 39,000  Level FlightAware ADS-B
Tue 12:20:45 AM 42.5330 -81.7680 85° East 496 571 39,000  Level FlightAware ADS-B
Tue 12:21:26 AM 42.5400 -81.6380 86° East 497 572 39,000  Level FlightAware ADS-B
Tue 12:22:08 AM 42.5480 -81.5190 85° East 501 577 39,000  Level FlightAware ADS-B
Tue 12:22:52 AM 42.5570 -81.3670 85° East 498 573 39,000  Level FlightAware ADS-B
Tue 12:23:33 AM 42.5640 -81.2370 86° East 498 573 39,000  Level FlightAware ADS-B
Tue 12:24:14 AM 42.5710 -81.1120 86° East 499 574 39,000  Level FlightAware ADS-B
Tue 12:25:02 AM 42.5790 -80.9730 85° East 498 573 39,000  Level FlightAware ADS-B
Tue 12:25:43 AM 42.5860 -80.8400 86° East 499 574 39,000  Level FlightAware ADS-B
Tue 12:26:30 AM 42.5940 -80.6980 86° East 499 574 39,000  Level FlightAware ADS-B
Tue 12:27:03 AM 42.5990 -80.5890 86° East 499 574 39,000  Level FlightAware ADS-B
Tue 12:27:47 AM 42.6060 -80.4470 86° East 500 575 39,000  Level FlightAware ADS-B
Tue 12:28:23 AM 42.6120 -80.3430 85° East 501 577 39,000  Level FlightAware ADS-B
Tue 12:29:13 AM 42.6190 -80.1860 86° East 502 578 39,000  Level FlightAware ADS-B
Tue 12:29:54 AM 42.6260 -80.0540 86° East 503 579 39,000  Level FlightAware ADS-B
Tue 12:30:32 AM 42.6310 -79.9360 87° East 504 580 39,000  Level FlightAware ADS-B
Tue 12:31:14 AM 42.6370 -79.8070 86° East 505 581 39,000  Level FlightAware ADS-B
Tue 12:31:47 AM 42.6420 -79.7000 86° East 506 582 39,000  Level FlightAware ADS-B
Tue 12:32:35 AM 42.6490 -79.5210 87° East 506 582 39,000  Level FlightAware ADS-B
Tue 12:33:15 AM 42.6550 -79.3890 86° East 507 583 39,000  Level FlightAware ADS-B
Tue 12:33:51 AM 42.6590 -79.2760 87° East 508 585 39,000  Level FlightAware ADS-B
Tue 12:34:33 AM 42.6650 -79.1420 86° East 509 586 39,000  Level FlightAware ADS-B
Tue 12:35:15 AM 42.6700 -79.0070 87° East 510 587 39,000  Level FlightAware ADS-B
Tue 12:35:56 AM 42.6750 -78.8790 87° East 510 587 39,000  Level FlightAware ADS-B
Tue 12:36:41 AM 42.6800 -78.7310 87° East 510 587 39,000  Level FlightAware ADS-B
Tue 12:37:19 AM 42.6840 -78.6130 87° East 507 583 39,000  Level FlightAware ADS-B
Tue 12:38:03 AM 42.6880 -78.4740 88° East 504 580 39,000  Level FlightAware ADS-B
Tue 12:38:43 AM 42.6930 -78.3450 87° East 501 577 39,000 -75 Level FlightAware ADS-B
Tue 12:39:23 AM 42.6970 -78.2220 87° East 500 575 38,900 -1,047 Descending FlightAware ADS-B
Tue 12:40:09 AM 42.7010 -78.0760 88° East 508 585 37,500 -1,643 Descending FlightAware ADS-B
Tue 12:40:47 AM 42.7040 -77.9580 88° East 507 583 36,600 -1,624 Descending FlightAware ADS-B
Tue 12:41:34 AM 42.7080 -77.8080 88° East 503 579 35,200 -2,207 Descending FlightAware ADS-B
Tue 12:42:14 AM 42.7120 -77.6820 87° East 503 579 33,400 -2,703 Descending FlightAware ADS-B
Tue 12:43:05 AM 42.7150 -77.5200 89° East 502 578 31,100 -2,571 Descending FlightAware ADS-B
Tue 12:43:45 AM 42.7180 -77.3960 88° East 490 564 29,500 -2,357 Descending FlightAware ADS-B
Tue 12:44:29 AM 42.7210 -77.2630 88° East 475 547 27,800 -2,357 Descending FlightAware ADS-B
Tue 12:45:09 AM 42.7240 -77.1440 88° East 462 532 26,200 -1,786 Descending FlightAware ADS-B
Tue 12:45:53 AM 42.7270 -77.0170 88° East 464 534 25,300 -847 Descending FlightAware ADS-B
Tue 12:46:34 AM 42.7290 -76.8980 89° East 465 535 25,000 -220 Descending FlightAware ADS-B
Tue 12:47:15 AM 42.7320 -76.7780 88° East 463 533 25,000  Level FlightAware ADS-B
Tue 12:47:51 AM 42.7340 -76.6730 88° East 461 531 25,000  Level FlightAware ADS-B
Tue 12:48:31 AM 42.7360 -76.5600 89° East 463 533 25,000  Level FlightAware ADS-B
Tue 12:49:13 AM 42.7380 -76.4350 89° East 465 535 25,000  Level FlightAware ADS-B
Tue 12:49:49 AM 42.7390 -76.3290 89° East 465 535 25,000  Level FlightAware ADS-B
Tue 12:50:33 AM 42.7410 -76.2030 89° East 466 536 25,000  Level FlightAware ADS-B
Tue 12:51:15 AM 42.7420 -76.0800 89° East 467 537 25,000  Level FlightAware ADS-B
Tue 12:51:47 AM 42.7430 -75.9840 89° East 467 537 25,000  Level FlightAware ADS-B
Tue 12:52:27 AM 42.7450 -75.8670 89° East 469 540 25,000  Level FlightAware ADS-B
Tue 12:53:13 AM 42.7460 -75.7320 89° East 469 540 25,000  Level FlightAware ADS-B
Tue 12:53:53 AM 42.7470 -75.6170 89° East 470 541 25,000  Level FlightAware ADS-B
Tue 12:54:35 AM 42.7480 -75.4930 89° East 470 541 25,000 -209 Level FlightAware ADS-B
Tue 12:55:19 AM 42.7450 -75.3620 92° East 467 537 24,700 -1,317 Descending FlightAware ADS-B
Tue 12:55:57 AM 42.7420 -75.2530 92° East 457 526 23,200 -2,538 Descending FlightAware ADS-B
Tue 12:56:37 AM 42.7400 -75.1400 91° East 447 514 21,400 -2,692 Descending FlightAware ADS-B
Tue 12:57:15 AM 42.7370 -75.0320 92° East 438 504 19,700 -2,250 Descending FlightAware ADS-B
Tue 12:57:57 AM 42.7400 -74.9180 88° East 418 481 18,400 -2,442 Descending FlightAware ADS-B
Tue 12:58:41 AM 42.7420 -74.8060 89° East 417 480 16,200 -3,068 Descending FlightAware ADS-B
Tue 12:59:25 AM 42.7450 -74.6900 88° East 417 480 13,900 -2,000 Descending FlightAware ADS-B
Tue 01:00:08 AM 42.7480 -74.5880 88° East 407 468 13,300 -456 Descending FlightAware ADS-B
Tue 01:00:44 AM 42.7500 -74.5100 88° East 407 468 13,300 -1,831 Level FlightAware ADS-B
Tue 01:02:06 AM 42.7033 -74.3472 88° East 297 342 9,700 -2,239 Descending Boston Center
Tue 01:03:06 AM 42.6758 -74.2389 109° East 288 331 8,000 -1,736 Descending Boston Center
Tue 01:04:07 AM 42.6442 -74.1281 111° Southeast 291 335 6,200 -1,574 Descending Boston Center
Tue 01:05:08 AM 42.6186 -74.0314 110° East 284 327 4,800 -1,240 Descending Boston Center
Tue 01:06:08 AM 42.5906 -73.9319 111° Southeast 276 318 3,700 -900 Descending Boston Center
Tue 01:07:08 AM 42.5750 -73.8525 105° East 258 297 3,000 -850 Descending Boston Center
Tue 01:08:08 AM 42.6089 -73.8025 47° Northeast 207 238 2,000 -738 Descending Boston Center
Tue 01:09:10 AM 42.6714 -73.8039 359° North 185 213 1,500 -634 Descending Boston Center
Tue 01:10:11 AM 42.7172 -73.8050 359° North 162 186 700 -787 Descending Boston Center
Tue 01:13:00 AM 42.7333 -73.8000 North  Level FlightAware Approximate
Tue 01:20:00 AM 42.7491 -73.8020 North  Level Estimated

Login

Don't have an account? Register now (free) for customized features, flight alerts, and more!